NOO2529 SKBO-SKCL
Flight info
| Callsign | NOO2529 |
|---|---|
| Flight time | 0h 31m |
| Altitude | 24000 |
| Route | KAMIS6A KAMIS W16 GIR R564 OREGA OREGA5A |
| Aircraft | B738/M-SDE2E3FGHIRWXY/LB1 |
Departure
| Time | 2026-05-04 23:27 |
|---|---|
| Airport | El Dorado International Airport (SKBO) |
Arrival
| Time | 2026-05-04 23:58 |
|---|---|
| Airport | Alfonso Bonilla Aragon International Airport (SKCL) |
| Time | Latitude | Longitude | Altitude | Speed | Heading |
|---|---|---|---|---|---|
| 2026-05-04 22:44 | 4.69882 | -74.14461 | 8369 ft | 0 kts | 226° |
| 2026-05-04 23:09 | 4.69883 | -74.14460 | 8369 ft | 1 kts | 226° |
| 2026-05-04 23:10 | 4.69895 | -74.14448 | 8369 ft | 3 kts | 220° |
| 2026-05-04 23:10 | 4.69910 | -74.14436 | 8369 ft | 3 kts | 214° |
| 2026-05-04 23:10 | 4.69927 | -74.14424 | 8369 ft | 3 kts | 218° |
| 2026-05-04 23:10 | 4.69940 | -74.14413 | 8369 ft | 3 kts | 260° |
| 2026-05-04 23:11 | 4.69941 | -74.14408 | 8370 ft | 0 kts | 307° |
| 2026-05-04 23:11 | 4.69941 | -74.14407 | 8370 ft | 0 kts | 307° |
| 2026-05-04 23:15 | 4.69941 | -74.14408 | 8370 ft | 0 kts | 307° |
| 2026-05-04 23:15 | 4.69945 | -74.14412 | 8370 ft | 2 kts | 307° |
| 2026-05-04 23:16 | 4.69958 | -74.14430 | 8369 ft | 4 kts | 307° |
| 2026-05-04 23:16 | 4.69982 | -74.14461 | 8369 ft | 7 kts | 307° |
| 2026-05-04 23:16 | 4.70013 | -74.14503 | 8369 ft | 8 kts | 307° |
| 2026-05-04 23:16 | 4.70052 | -74.14554 | 8369 ft | 10 kts | 307° |
| 2026-05-04 23:17 | 4.70097 | -74.14614 | 8369 ft | 11 kts | 301° |
| 2026-05-04 23:17 | 4.70072 | -74.14680 | 8369 ft | 11 kts | 218° |
| 2026-05-04 23:17 | 4.70013 | -74.14725 | 8369 ft | 11 kts | 217° |
| 2026-05-04 23:17 | 4.69955 | -74.14769 | 8369 ft | 10 kts | 217° |
| 2026-05-04 23:18 | 4.69899 | -74.14812 | 8369 ft | 10 kts | 217° |
| 2026-05-04 23:18 | 4.69845 | -74.14853 | 8369 ft | 10 kts | 217° |
| 2026-05-04 23:18 | 4.69804 | -74.14902 | 8370 ft | 9 kts | 262° |
| 2026-05-04 23:18 | 4.69823 | -74.14934 | 8370 ft | 5 kts | 320° |
| 2026-05-04 23:19 | 4.69846 | -74.14962 | 8370 ft | 5 kts | 306° |
| 2026-05-04 23:19 | 4.69867 | -74.14990 | 8370 ft | 5 kts | 306° |
| 2026-05-04 23:19 | 4.69887 | -74.15018 | 8370 ft | 5 kts | 308° |
| 2026-05-04 23:19 | 4.69909 | -74.15044 | 8370 ft | 5 kts | 309° |
| 2026-05-04 23:20 | 4.69929 | -74.15071 | 8369 ft | 5 kts | 307° |
| 2026-05-04 23:20 | 4.69949 | -74.15097 | 8370 ft | 5 kts | 307° |
| 2026-05-04 23:20 | 4.69968 | -74.15123 | 8370 ft | 5 kts | 307° |
| 2026-05-04 23:20 | 4.69987 | -74.15148 | 8369 ft | 5 kts | 307° |
| 2026-05-04 23:21 | 4.70006 | -74.15173 | 8370 ft | 4 kts | 307° |
| 2026-05-04 23:21 | 4.70028 | -74.15203 | 8370 ft | 4 kts | 307° |
| 2026-05-04 23:21 | 4.70046 | -74.15227 | 8370 ft | 4 kts | 307° |
| 2026-05-04 23:21 | 4.70063 | -74.15250 | 8369 ft | 4 kts | 307° |
| 2026-05-04 23:22 | 4.70080 | -74.15274 | 8370 ft | 4 kts | 307° |
| 2026-05-04 23:22 | 4.70097 | -74.15296 | 8370 ft | 4 kts | 307° |
| 2026-05-04 23:22 | 4.70114 | -74.15318 | 8369 ft | 4 kts | 309° |
| 2026-05-04 23:22 | 4.70128 | -74.15335 | 8369 ft | 5 kts | 308° |
| 2026-05-04 23:23 | 4.70155 | -74.15371 | 8369 ft | 8 kts | 307° |
| 2026-05-04 23:23 | 4.70224 | -74.15463 | 8369 ft | 16 kts | 307° |
| 2026-05-04 23:23 | 4.70303 | -74.15568 | 8369 ft | 22 kts | 307° |
| 2026-05-04 23:23 | 4.70404 | -74.15701 | 8369 ft | 26 kts | 308° |
| 2026-05-04 23:24 | 4.70482 | -74.15804 | 8369 ft | 29 kts | 307° |
| 2026-05-04 23:24 | 4.70609 | -74.15971 | 8369 ft | 32 kts | 307° |
| 2026-05-04 23:24 | 4.70751 | -74.16159 | 8370 ft | 35 kts | 307° |
| 2026-05-04 23:24 | 4.70908 | -74.16363 | 8370 ft | 38 kts | 308° |
| 2026-05-04 23:25 | 4.71070 | -74.16578 | 8369 ft | 38 kts | 307° |
| 2026-05-04 23:25 | 4.71197 | -74.16747 | 8370 ft | 10 kts | 303° |
| 2026-05-04 23:25 | 4.71185 | -74.16806 | 8370 ft | 9 kts | 219° |
| 2026-05-04 23:25 | 4.71134 | -74.16845 | 8370 ft | 9 kts | 217° |
| 2026-05-04 23:26 | 4.71082 | -74.16881 | 8370 ft | 9 kts | 204° |
| 2026-05-04 23:26 | 4.71024 | -74.16871 | 8371 ft | 9 kts | 145° |
| 2026-05-04 23:26 | 4.70954 | -74.16783 | 8371 ft | 37 kts | 127° |
| 2026-05-04 23:26 | 4.70678 | -74.16417 | 8372 ft | 94 kts | 127° |
| 2026-05-04 23:27 | 4.70174 | -74.15753 | 8370 ft | 143 kts | 127° |
| 2026-05-04 23:27 | 4.69486 | -74.14838 | 8390 ft | 182 kts | 126° |
| 2026-05-04 23:27 | 4.68676 | -74.13813 | 8871 ft | 190 kts | 127° |
| 2026-05-04 23:27 | 4.67891 | -74.12746 | 9541 ft | 190 kts | 124° |
| 2026-05-04 23:28 | 4.67106 | -74.11715 | 10180 ft | 190 kts | 134° |
| 2026-05-04 23:28 | 4.65899 | -74.11067 | 10356 ft | 211 kts | 170° |
| 2026-05-04 23:28 | 4.64397 | -74.11282 | 10483 ft | 231 kts | 206° |
| 2026-05-04 23:28 | 4.63192 | -74.12413 | 10624 ft | 249 kts | 240° |
| 2026-05-04 23:29 | 4.62644 | -74.14120 | 10763 ft | 267 kts | 258° |
| 2026-05-04 23:29 | 4.62331 | -74.16021 | 10979 ft | 284 kts | 261° |
| 2026-05-04 23:29 | 4.62028 | -74.18012 | 11514 ft | 289 kts | 260° |
| 2026-05-04 23:29 | 4.61699 | -74.19977 | 12214 ft | 289 kts | 259° |
| 2026-05-04 23:30 | 4.61333 | -74.21975 | 12821 ft | 294 kts | 258° |
| 2026-05-04 23:30 | 4.60946 | -74.24004 | 13446 ft | 297 kts | 258° |
| 2026-05-04 23:30 | 4.60549 | -74.26051 | 14106 ft | 301 kts | 258° |
| 2026-05-04 23:30 | 4.59864 | -74.28044 | 14569 ft | 307 kts | 237° |
| 2026-05-04 23:31 | 4.58669 | -74.29869 | 14715 ft | 327 kts | 233° |
| 2026-05-04 23:31 | 4.57310 | -74.31784 | 14848 ft | 346 kts | 232° |
| 2026-05-04 23:31 | 4.55860 | -74.33807 | 14968 ft | 366 kts | 233° |
| 2026-05-04 23:31 | 4.54341 | -74.35944 | 15147 ft | 382 kts | 233° |
| 2026-05-04 23:32 | 4.52792 | -74.38144 | 15526 ft | 390 kts | 233° |
| 2026-05-04 23:32 | 4.51242 | -74.40363 | 15824 ft | 387 kts | 233° |
| 2026-05-04 23:32 | 4.49718 | -74.42554 | 15853 ft | 388 kts | 234° |
| 2026-05-04 23:32 | 4.48172 | -74.44781 | 15837 ft | 391 kts | 234° |
| 2026-05-04 23:33 | 4.46616 | -74.47023 | 15817 ft | 391 kts | 233° |
| 2026-05-04 23:33 | 4.45060 | -74.49266 | 15791 ft | 392 kts | 233° |
| 2026-05-04 23:33 | 4.43496 | -74.51520 | 15801 ft | 392 kts | 233° |
| 2026-05-04 23:33 | 4.41947 | -74.53753 | 16128 ft | 389 kts | 233° |
| 2026-05-04 23:34 | 4.40393 | -74.55991 | 16473 ft | 393 kts | 233° |
| 2026-05-04 23:34 | 4.38842 | -74.58224 | 16833 ft | 398 kts | 233° |
| 2026-05-04 23:34 | 4.37243 | -74.60526 | 17221 ft | 402 kts | 233° |
| 2026-05-04 23:34 | 4.35645 | -74.62838 | 17550 ft | 405 kts | 234° |
| 2026-05-04 23:35 | 4.34054 | -74.65175 | 17929 ft | 406 kts | 234° |
| 2026-05-04 23:35 | 4.32458 | -74.67524 | 18304 ft | 408 kts | 234° |
| 2026-05-04 23:35 | 4.30852 | -74.69877 | 18634 ft | 410 kts | 233° |
| 2026-05-04 23:35 | 4.29244 | -74.72194 | 18949 ft | 411 kts | 233° |
| 2026-05-04 23:36 | 4.27602 | -74.74544 | 19276 ft | 412 kts | 233° |
| 2026-05-04 23:36 | 4.25952 | -74.76904 | 19614 ft | 413 kts | 233° |
| 2026-05-04 23:36 | 4.24304 | -74.79266 | 19955 ft | 414 kts | 233° |
| 2026-05-04 23:36 | 4.22651 | -74.81639 | 20296 ft | 416 kts | 233° |
| 2026-05-04 23:37 | 4.20989 | -74.84026 | 20649 ft | 418 kts | 233° |
| 2026-05-04 23:37 | 4.19332 | -74.86423 | 21001 ft | 420 kts | 235° |
| 2026-05-04 23:37 | 4.17870 | -74.88932 | 21354 ft | 423 kts | 241° |
| 2026-05-04 23:37 | 4.16511 | -74.91567 | 21718 ft | 426 kts | 242° |
| 2026-05-04 23:38 | 4.15186 | -74.94229 | 22088 ft | 429 kts | 243° |
| 2026-05-04 23:38 | 4.13852 | -74.96920 | 22467 ft | 432 kts | 243° |
| 2026-05-04 23:38 | 4.12503 | -74.99623 | 22845 ft | 434 kts | 242° |
| 2026-05-04 23:38 | 4.11136 | -75.02336 | 23228 ft | 436 kts | 242° |
| 2026-05-04 23:39 | 4.09758 | -75.05049 | 23607 ft | 438 kts | 242° |
| 2026-05-04 23:39 | 4.08369 | -75.07771 | 23925 ft | 440 kts | 242° |
| 2026-05-04 23:39 | 4.06964 | -75.10518 | 23997 ft | 447 kts | 242° |
| 2026-05-04 23:39 | 4.05555 | -75.13269 | 24006 ft | 450 kts | 242° |
| 2026-05-04 23:40 | 4.04129 | -75.16054 | 24010 ft | 447 kts | 242° |
| 2026-05-04 23:40 | 4.02707 | -75.18831 | 24003 ft | 445 kts | 242° |
| 2026-05-04 23:40 | 4.01293 | -75.21593 | 24015 ft | 446 kts | 242° |
| 2026-05-04 23:40 | 3.99880 | -75.24353 | 24016 ft | 446 kts | 242° |
| 2026-05-04 23:41 | 3.98462 | -75.27122 | 24031 ft | 446 kts | 242° |
| 2026-05-04 23:41 | 3.97062 | -75.29857 | 24035 ft | 447 kts | 242° |
| 2026-05-04 23:41 | 3.95642 | -75.32628 | 24040 ft | 447 kts | 242° |
| 2026-05-04 23:41 | 3.94222 | -75.35401 | 24041 ft | 447 kts | 242° |
| 2026-05-04 23:42 | 3.92795 | -75.38189 | 24034 ft | 447 kts | 242° |
| 2026-05-04 23:42 | 3.91374 | -75.40963 | 24049 ft | 446 kts | 242° |
| 2026-05-04 23:42 | 3.89973 | -75.43699 | 24051 ft | 446 kts | 242° |
| 2026-05-04 23:42 | 3.88558 | -75.46461 | 24061 ft | 445 kts | 242° |
| 2026-05-04 23:43 | 3.87144 | -75.49221 | 24070 ft | 444 kts | 242° |
| 2026-05-04 23:43 | 3.85764 | -75.51983 | 24066 ft | 444 kts | 243° |
| 2026-05-04 23:43 | 3.84432 | -75.54776 | 24073 ft | 444 kts | 244° |
| 2026-05-04 23:43 | 3.83124 | -75.57573 | 24080 ft | 442 kts | 244° |
| 2026-05-04 23:44 | 3.81831 | -75.60347 | 23900 ft | 434 kts | 244° |
| 2026-05-04 23:44 | 3.80563 | -75.63062 | 23577 ft | 428 kts | 244° |
| 2026-05-04 23:44 | 3.79302 | -75.65746 | 23095 ft | 425 kts | 244° |
| 2026-05-04 23:44 | 3.78059 | -75.68382 | 22636 ft | 421 kts | 244° |
| 2026-05-04 23:45 | 3.76810 | -75.71025 | 22177 ft | 418 kts | 244° |
| 2026-05-04 23:45 | 3.75571 | -75.73644 | 21716 ft | 415 kts | 244° |
| 2026-05-04 23:45 | 3.74339 | -75.76245 | 21269 ft | 413 kts | 244° |
| 2026-05-04 23:45 | 3.73115 | -75.78831 | 20813 ft | 410 kts | 244° |
| 2026-05-04 23:46 | 3.71895 | -75.81407 | 20354 ft | 408 kts | 244° |
| 2026-05-04 23:46 | 3.70677 | -75.83981 | 19902 ft | 406 kts | 243° |
| 2026-05-04 23:46 | 3.69471 | -75.86529 | 19440 ft | 403 kts | 244° |
| 2026-05-04 23:46 | 3.68283 | -75.89038 | 18975 ft | 402 kts | 243° |
| 2026-05-04 23:47 | 3.67081 | -75.91575 | 18519 ft | 401 kts | 244° |
| 2026-05-04 23:47 | 3.65883 | -75.94106 | 18004 ft | 400 kts | 244° |
| 2026-05-04 23:47 | 3.64692 | -75.96621 | 17542 ft | 398 kts | 244° |
| 2026-05-04 23:47 | 3.63525 | -75.99085 | 17090 ft | 395 kts | 244° |
| 2026-05-04 23:48 | 3.62350 | -76.01566 | 16629 ft | 392 kts | 244° |
| 2026-05-04 23:48 | 3.61184 | -76.04027 | 16177 ft | 388 kts | 244° |
| 2026-05-04 23:48 | 3.60029 | -76.06467 | 15656 ft | 387 kts | 244° |
| 2026-05-04 23:48 | 3.58875 | -76.08909 | 15063 ft | 388 kts | 244° |
| 2026-05-04 23:49 | 3.57718 | -76.11359 | 14440 ft | 390 kts | 244° |
| 2026-05-04 23:49 | 3.56586 | -76.13756 | 13838 ft | 383 kts | 244° |
| 2026-05-04 23:49 | 3.55460 | -76.16141 | 13168 ft | 374 kts | 244° |
| 2026-05-04 23:49 | 3.54359 | -76.18471 | 12574 ft | 366 kts | 244° |
| 2026-05-04 23:50 | 3.53279 | -76.20758 | 11985 ft | 360 kts | 244° |
| 2026-05-04 23:50 | 3.52219 | -76.23002 | 11409 ft | 353 kts | 244° |
| 2026-05-04 23:50 | 3.51177 | -76.25206 | 10849 ft | 346 kts | 244° |
| 2026-05-04 23:50 | 3.49965 | -76.27256 | 10269 ft | 340 kts | 227° |
| 2026-05-04 23:51 | 3.48169 | -76.28681 | 9914 ft | 327 kts | 207° |
| 2026-05-04 23:51 | 3.46127 | -76.29438 | 9929 ft | 302 kts | 193° |
| 2026-05-04 23:51 | 3.44118 | -76.29871 | 9876 ft | 290 kts | 191° |
| 2026-05-04 23:51 | 3.42173 | -76.30268 | 9780 ft | 281 kts | 191° |
| 2026-05-04 23:52 | 3.40288 | -76.30666 | 9582 ft | 271 kts | 191° |
| 2026-05-04 23:52 | 3.38497 | -76.31055 | 9390 ft | 256 kts | 192° |
| 2026-05-04 23:52 | 3.36790 | -76.31429 | 9130 ft | 245 kts | 192° |
| 2026-05-04 23:52 | 3.35158 | -76.31832 | 8902 ft | 237 kts | 202° |
| 2026-05-04 23:53 | 3.33893 | -76.32792 | 8625 ft | 231 kts | 234° |
| 2026-05-04 23:53 | 3.33318 | -76.34252 | 8261 ft | 224 kts | 265° |
| 2026-05-04 23:53 | 3.33476 | -76.35761 | 7902 ft | 217 kts | 289° |
| 2026-05-04 23:53 | 3.34120 | -76.37106 | 7555 ft | 211 kts | 300° |
| 2026-05-04 23:54 | 3.34847 | -76.38359 | 7210 ft | 205 kts | 301° |
| 2026-05-04 23:54 | 3.35561 | -76.39579 | 6850 ft | 201 kts | 301° |
| 2026-05-04 23:54 | 3.36488 | -76.40586 | 6469 ft | 197 kts | 331° |
| 2026-05-04 23:54 | 3.37770 | -76.40966 | 6111 ft | 191 kts | 358° |
| 2026-05-04 23:55 | 3.39076 | -76.40807 | 5750 ft | 188 kts | 10° |
| 2026-05-04 23:55 | 3.40356 | -76.40586 | 5379 ft | 186 kts | 9° |
| 2026-05-04 23:55 | 3.42827 | -76.40163 | 4721 ft | 176 kts | 9° |
| 2026-05-04 23:56 | 3.44039 | -76.39953 | 4433 ft | 173 kts | 9° |
| 2026-05-04 23:56 | 3.45219 | -76.39748 | 4280 ft | 173 kts | 9° |
| 2026-05-04 23:56 | 3.46408 | -76.39542 | 4146 ft | 174 kts | 8° |
| 2026-05-04 23:56 | 3.47616 | -76.39332 | 4056 ft | 176 kts | 8° |
| 2026-05-04 23:57 | 3.48814 | -76.39124 | 4017 ft | 168 kts | 8° |
| 2026-05-04 23:57 | 3.49921 | -76.38928 | 3818 ft | 160 kts | 8° |
| 2026-05-04 23:57 | 3.51018 | -76.38743 | 3602 ft | 161 kts | 8° |
| 2026-05-04 23:57 | 3.52104 | -76.38546 | 3381 ft | 156 kts | 7° |
| 2026-05-04 23:58 | 3.53173 | -76.38368 | 3177 ft | 155 kts | 8° |
| 2026-05-04 23:58 | 3.54128 | -76.38201 | 3165 ft | 113 kts | 10° |
| 2026-05-04 23:58 | 3.54688 | -76.38105 | 3164 ft | 51 kts | 10° |
| 2026-05-04 23:58 | 3.54990 | -76.38053 | 3165 ft | 30 kts | 10° |
| 2026-05-04 23:59 | 3.55102 | -76.38112 | 3167 ft | 17 kts | 287° |
| 2026-05-04 23:59 | 3.55108 | -76.38141 | 3167 ft | 1 kts | 280° |
| 2026-05-04 23:59 | 3.55110 | -76.38151 | 3167 ft | 1 kts | 280° |
| 2026-05-04 23:59 | 3.55113 | -76.38168 | 3168 ft | 4 kts | 277° |
| 2026-05-05 00:00 | 3.55081 | -76.38200 | 3167 ft | 10 kts | 199° |
| 2026-05-05 00:00 | 3.55055 | -76.38205 | 3167 ft | 12 kts | 189° |
| 2026-05-05 00:00 | 3.54869 | -76.38238 | 3166 ft | 17 kts | 189° |
| 2026-05-05 00:00 | 3.54754 | -76.38257 | 3167 ft | 17 kts | 189° |
| 2026-05-05 00:01 | 3.54642 | -76.38276 | 3167 ft | 16 kts | 189° |
| 2026-05-05 00:01 | 3.54534 | -76.38295 | 3166 ft | 15 kts | 191° |
| 2026-05-05 00:01 | 3.54430 | -76.38313 | 3164 ft | 15 kts | 190° |
| 2026-05-05 00:01 | 3.54331 | -76.38330 | 3164 ft | 14 kts | 189° |
| 2026-05-05 00:02 | 3.54235 | -76.38346 | 3164 ft | 14 kts | 189° |
| 2026-05-05 00:02 | 3.54145 | -76.38361 | 3163 ft | 13 kts | 191° |
| 2026-05-05 00:02 | 3.54065 | -76.38396 | 3164 ft | 13 kts | 220° |
| 2026-05-05 00:02 | 3.53999 | -76.38452 | 3162 ft | 12 kts | 220° |
| 2026-05-05 00:03 | 3.53933 | -76.38507 | 3162 ft | 12 kts | 219° |
| 2026-05-05 00:03 | 3.53870 | -76.38560 | 3162 ft | 12 kts | 220° |
| 2026-05-05 00:03 | 3.53837 | -76.38629 | 3161 ft | 11 kts | 265° |
| 2026-05-05 00:03 | 3.53832 | -76.38691 | 3161 ft | 0 kts | 266° |
| 2026-05-05 00:04 | 3.53832 | -76.38698 | 3161 ft | 0 kts | 266° |